sensor_id;sensor_type;location;lat;lon;timestamp;pressure;altitude;pressure_sealevel;temperature;humidity
3250;BME280;1637;42.020;23.992;2024-03-06T00:02:12;92490.56;;;5.98;100.00
3250;BME280;1637;42.020;23.992;2024-03-06T00:04:39;92456.75;;;5.95;100.00
3250;BME280;1637;42.020;23.992;2024-03-06T00:07:06;92417.59;;;5.67;100.00
3250;BME280;1637;42.020;23.992;2024-03-06T00:09:34;92485.97;;;6.05;100.00
3250;BME280;1637;42.020;23.992;2024-03-06T00:12:02;92489.03;;;6.11;100.00
3250;BME280;1637;42.020;23.992;2024-03-06T00:14:29;92485.22;;;6.05;100.00
3250;BME280;1637;42.020;23.992;2024-03-06T00:16:56;92492.47;;;6.15;100.00
3250;BME280;1637;42.020;23.992;2024-03-06T00:19:23;92489.03;;;6.25;100.00
3250;BME280;1637;42.020;23.992;2024-03-06T00:21:50;92522.47;;;6.30;100.00
3250;BME280;1637;42.020;23.992;2024-03-06T00:24:17;92478.78;;;6.27;100.00
3250;BME280;1637;42.020;23.992;2024-03-06T00:26:45;92481.81;;;6.01;100.00
3250;BME280;1637;42.020;23.992;2024-03-06T00:29:12;92477.25;;;5.91;100.00
3250;BME280;1637;42.020;23.992;2024-03-06T00:31:42;92482.16;;;5.81;100.00
3250;BME280;1637;42.020;23.992;2024-03-06T00:34:09;92480.69;;;5.98;100.00
3250;BME280;1637;42.020;23.992;2024-03-06T00:36:36;92481.06;;;6.14;100.00
3250;BME280;1637;42.020;23.992;2024-03-06T00:39:03;92489.41;;;6.13;100.00
3250;BME280;1637;42.020;23.992;2024-03-06T00:41:30;92485.63;;;6.32;100.00
3250;BME280;1637;42.020;23.992;2024-03-06T00:43:58;92480.31;;;6.17;100.00
3250;BME280;1637;42.020;23.992;2024-03-06T00:46:25;92488.28;;;6.14;100.00
3250;BME280;1637;42.020;23.992;2024-03-06T00:48:52;92486.75;;;6.13;100.00
3250;BME280;1637;42.020;23.992;2024-03-06T00:51:18;92487.88;;;6.08;100.00
3250;BME280;1637;42.020;23.992;2024-03-06T00:53:45;92492.84;;;6.13;100.00
3250;BME280;1637;42.020;23.992;2024-03-06T00:56:12;92489.41;;;6.13;100.00
3250;BME280;1637;42.020;23.992;2024-03-06T00:58:39;92487.44;;;5.71;100.00
3250;BME280;1637;42.020;23.992;2024-03-06T01:01:07;92497.69;;;5.69;100.00
3250;BME280;1637;42.020;23.992;2024-03-06T01:03:33;92485.19;;;5.73;100.00
3250;BME280;1637;42.020;23.992;2024-03-06T01:06:00;92488.63;;;5.91;100.00
3250;BME280;1637;42.020;23.992;2024-03-06T01:08:27;92477.22;;;5.87;100.00
3250;BME280;1637;42.020;23.992;2024-03-06T01:10:55;92496.56;;;5.73;100.00
3250;BME280;1637;42.020;23.992;2024-03-06T01:13:22;92494.97;;;5.47;100.00
3250;BME280;1637;42.020;23.992;2024-03-06T01:15:49;92483.53;;;5.29;100.00
3250;BME280;1637;42.020;23.992;2024-03-06T01:18:17;92493.53;;;5.82;100.00
3250;BME280;1637;42.020;23.992;2024-03-06T01:20:44;92496.56;;;5.70;100.00
3250;BME280;1637;42.020;23.992;2024-03-06T01:23:10;92497.31;;;5.74;100.00
3250;BME280;1637;42.020;23.992;2024-03-06T01:25:37;92505.38;;;5.99;100.00
3250;BME280;1637;42.020;23.992;2024-03-06T01:28:05;92503.47;;;6.17;100.00
3250;BME280;1637;42.020;23.992;2024-03-06T01:30:31;92505.75;;;6.15;100.00
3250;BME280;1637;42.020;23.992;2024-03-06T01:32:58;92508.34;;;5.86;100.00
3250;BME280;1637;42.020;23.992;2024-03-06T01:35:26;92503.41;;;5.81;100.00
3250;BME280;1637;42.020;23.992;2024-03-06T01:37:53;92507.63;;;5.97;100.00
3250;BME280;1637;42.020;23.992;2024-03-06T01:40:20;92506.50;;;6.12;100.00
3250;BME280;1637;42.020;23.992;2024-03-06T01:42:46;92513.72;;;6.26;100.00
3250;BME280;1637;42.020;23.992;2024-03-06T01:45:14;92519.81;;;6.33;100.00
3250;BME280;1637;42.020;23.992;2024-03-06T01:47:41;92514.88;;;6.14;100.00
3250;BME280;1637;42.020;23.992;2024-03-06T01:50:08;92502.66;;;5.88;100.00
3250;BME280;1637;42.020;23.992;2024-03-06T01:52:38;92587.75;;;5.95;100.00
3250;BME280;1637;42.020;23.992;2024-03-06T01:55:07;92528.53;;;6.02;100.00
3250;BME280;1637;42.020;23.992;2024-03-06T01:57:34;92531.88;;;5.74;100.00
3250;BME280;1637;42.020;23.992;2024-03-06T02:00:03;92521.97;;;5.57;100.00
3250;BME280;1637;42.020;23.992;2024-03-06T02:02:33;92532.91;;;5.44;100.00
3250;BME280;1637;42.020;23.992;2024-03-06T02:05:01;92525.22;;;5.22;100.00
3250;BME280;1637;42.020;23.992;2024-03-06T02:07:28;92524.78;;;4.98;100.00
3250;BME280;1637;42.020;23.992;2024-03-06T02:10:00;92522.09;;;4.95;100.00
3250;BME280;1637;42.020;23.992;2024-03-06T02:12:26;92522.84;;;4.95;100.00
3250;BME280;1637;42.020;23.992;2024-03-06T02:14:53;92534.59;;;4.94;100.00
3250;BME280;1637;42.020;23.992;2024-03-06T02:17:20;92537.19;;;4.83;100.00
3250;BME280;1637;42.020;23.992;2024-03-06T02:19:47;92528.50;;;4.90;100.00
3250;BME280;1637;42.020;23.992;2024-03-06T02:22:15;92531.13;;;4.87;100.00
3250;BME280;1637;42.020;23.992;2024-03-06T02:24:44;92515.56;;;4.81;100.00
3250;BME280;1637;42.020;23.992;2024-03-06T02:27:11;92531.84;;;4.76;100.00
3250;BME280;1637;42.020;23.992;2024-03-06T02:29:38;92535.63;;;4.75;100.00
3250;BME280;1637;42.020;23.992;2024-03-06T02:32:05;92535.63;;;4.75;100.00
3250;BME280;1637;42.020;23.992;2024-03-06T02:34:32;92537.84;;;4.66;100.00
3250;BME280;1637;42.020;23.992;2024-03-06T02:36:58;92540.78;;;4.51;100.00
3250;BME280;1637;42.020;23.992;2024-03-06T02:39:26;92538.38;;;4.38;100.00
3250;BME280;1637;42.020;23.992;2024-03-06T02:41:53;92539.44;;;4.27;100.00
3250;BME280;1637;42.020;23.992;2024-03-06T02:44:20;92542.16;;;4.37;100.00
3250;BME280;1637;42.020;23.992;2024-03-06T02:46:47;92545.16;;;4.29;100.00
3250;BME280;1637;42.020;23.992;2024-03-06T02:49:15;92541.44;;;4.40;100.00
3250;BME280;1637;42.020;23.992;2024-03-06T02:51:42;92548.28;;;4.45;100.00
3250;BME280;1637;42.020;23.992;2024-03-06T02:54:09;92551.34;;;4.47;100.00
3250;BME280;1637;42.020;23.992;2024-03-06T02:56:37;92547.13;;;4.42;100.00
3250;BME280;1637;42.020;23.992;2024-03-06T02:59:03;92547.16;;;4.46;100.00
3250;BME280;1637;42.020;23.992;2024-03-06T03:01:30;92549.78;;;4.42;100.00
3250;BME280;1637;42.020;23.992;2024-03-06T03:03:58;92548.63;;;4.40;100.00
3250;BME280;1637;42.020;23.992;2024-03-06T03:06:25;92542.63;;;4.46;100.00
3250;BME280;1637;42.020;23.992;2024-03-06T03:08:52;92558.97;;;4.52;100.00
3250;BME280;1637;42.020;23.992;2024-03-06T03:11:18;92560.59;;;4.71;100.00
3250;BME280;1637;42.020;23.992;2024-03-06T03:13:47;92557.59;;;4.72;100.00
3250;BME280;1637;42.020;23.992;2024-03-06T03:16:17;92545.34;;;4.54;100.00
3250;BME280;1637;42.020;23.992;2024-03-06T03:18:44;92474.81;;;3.91;100.00
3250;BME280;1637;42.020;23.992;2024-03-06T03:21:11;92556.59;;;4.40;100.00
3250;BME280;1637;42.020;23.992;2024-03-06T03:23:38;92537.22;;;4.32;100.00
3250;BME280;1637;42.020;23.992;2024-03-06T03:26:05;92555.16;;;4.49;100.00
3250;BME280;1637;42.020;23.992;2024-03-06T03:28:32;92557.44;;;4.51;100.00
3250;BME280;1637;42.020;23.992;2024-03-06T03:31:00;92556.69;;;4.51;100.00
3250;BME280;1637;42.020;23.992;2024-03-06T03:33:27;92553.25;;;4.50;100.00
3250;BME280;1637;42.020;23.992;2024-03-06T03:35:54;92549.88;;;4.53;100.00
3250;BME280;1637;42.020;23.992;2024-03-06T03:38:20;92555.91;;;4.50;100.00
3250;BME280;1637;42.020;23.992;2024-03-06T03:40:47;92561.25;;;4.54;100.00
3250;BME280;1637;42.020;23.992;2024-03-06T03:43:14;92558.19;;;4.52;100.00
3250;BME280;1637;42.020;23.992;2024-03-06T03:45:41;92559.75;;;4.56;100.00
3250;BME280;1637;42.020;23.992;2024-03-06T03:48:09;92563.16;;;4.60;100.00
3250;BME280;1637;42.020;23.992;2024-03-06T03:50:36;92544.97;;;4.59;100.00
3250;BME280;1637;42.020;23.992;2024-03-06T03:53:03;92574.25;;;4.69;100.00
3250;BME280;1637;42.020;23.992;2024-03-06T03:55:30;92573.16;;;4.77;100.00
3250;BME280;1637;42.020;23.992;2024-03-06T03:57:56;92572.34;;;4.70;100.00
3250;BME280;1637;42.020;23.992;2024-03-06T04:00:23;92568.72;;;4.96;100.00
3250;BME280;1637;42.020;23.992;2024-03-06T04:02:50;92578.84;;;4.79;100.00
3250;BME280;1637;42.020;23.992;2024-03-06T04:05:18;92583.13;;;4.95;100.00
3250;BME280;1637;42.020;23.992;2024-03-06T04:07:45;92576.59;;;4.78;100.00
3250;BME280;1637;42.020;23.992;2024-03-06T04:10:11;92579.03;;;5.08;100.00
3250;BME280;1637;42.020;23.992;2024-03-06T04:12:38;92586.44;;;4.81;100.00
3250;BME280;1637;42.020;23.992;2024-03-06T04:15:06;92590.50;;;5.26;100.00
3250;BME280;1637;42.020;23.992;2024-03-06T04:17:34;92592.50;;;4.81;100.00
3250;BME280;1637;42.020;23.992;2024-03-06T04:20:01;92596.56;;;5.27;100.00
3250;BME280;1637;42.020;23.992;2024-03-06T04:22:30;92585.69;;;4.84;100.00
3250;BME280;1637;42.020;23.992;2024-03-06T04:24:57;92603.31;;;5.10;100.00
3250;BME280;1637;42.020;23.992;2024-03-06T04:27:24;92536.31;;;4.65;100.00
3250;BME280;1637;42.020;23.992;2024-03-06T04:29:51;92586.38;;;4.70;100.00
3250;BME280;1637;42.020;23.992;2024-03-06T04:32:18;92566.53;;;4.50;100.00
3250;BME280;1637;42.020;23.992;2024-03-06T04:34:45;92591.31;;;4.72;100.00
3250;BME280;1637;42.020;23.992;2024-03-06T04:37:12;92588.22;;;4.66;100.00
3250;BME280;1637;42.020;23.992;2024-03-06T04:39:41;92580.28;;;4.66;100.00
3250;BME280;1637;42.020;23.992;2024-03-06T04:42:07;92586.47;;;4.84;100.00
3250;BME280;1637;42.020;23.992;2024-03-06T04:44:34;92574.41;;;4.94;100.00
3250;BME280;1637;42.020;23.992;2024-03-06T04:47:01;92594.13;;;5.00;100.00
3250;BME280;1637;42.020;23.992;2024-03-06T04:49:28;92573.66;;;5.01;100.00
3250;BME280;1637;42.020;23.992;2024-03-06T04:51:55;92594.09;;;4.93;100.00
3250;BME280;1637;42.020;23.992;2024-03-06T04:54:21;92595.91;;;4.82;100.00
3250;BME280;1637;42.020;23.992;2024-03-06T04:56:49;92591.72;;;4.74;100.00
3250;BME280;1637;42.020;23.992;2024-03-06T04:59:16;92599.25;;;4.68;100.00
3250;BME280;1637;42.020;23.992;2024-03-06T05:01:42;92592.97;;;4.43;100.00
3250;BME280;1637;42.020;23.992;2024-03-06T05:04:09;92596.13;;;4.56;100.00
3250;BME280;1637;42.020;23.992;2024-03-06T05:06:37;92588.75;;;4.35;100.00
3250;BME280;1637;42.020;23.992;2024-03-06T05:09:04;92585.56;;;4.63;100.00
3250;BME280;1637;42.020;23.992;2024-03-06T05:11:31;92608.41;;;4.81;100.00
3250;BME280;1637;42.020;23.992;2024-03-06T05:13:59;92614.16;;;4.39;100.00
3250;BME280;1637;42.020;23.992;2024-03-06T05:16:26;92622.25;;;4.54;100.00
3250;BME280;1637;42.020;23.992;2024-03-06T05:18:53;92615.06;;;4.58;100.00
3250;BME280;1637;42.020;23.992;2024-03-06T05:21:21;92617.34;;;4.56;100.00
3250;BME280;1637;42.020;23.992;2024-03-06T05:23:48;92606.19;;;4.39;100.00
3250;BME280;1637;42.020;23.992;2024-03-06T05:26:15;92623.00;;;4.54;100.00
3250;BME280;1637;42.020;23.992;2024-03-06T05:28:42;92626.38;;;4.51;100.00
3250;BME280;1637;42.020;23.992;2024-03-06T05:31:17;92633.66;;;4.61;100.00
3250;BME280;1637;42.020;23.992;2024-03-06T05:33:47;92634.59;;;4.83;100.00
3250;BME280;1637;42.020;23.992;2024-03-06T05:36:14;92639.69;;;5.06;100.00
3250;BME280;1637;42.020;23.992;2024-03-06T05:38:42;92638.72;;;4.80;100.00
3250;BME280;1637;42.020;23.992;2024-03-06T05:41:09;92635.03;;;4.92;100.00
3250;BME280;1637;42.020;23.992;2024-03-06T05:43:36;92609.03;;;4.61;100.00
3250;BME280;1637;42.020;23.992;2024-03-06T05:46:03;92642.31;;;4.99;100.00
3250;BME280;1637;42.020;23.992;2024-03-06T05:48:31;92642.31;;;5.02;100.00
3250;BME280;1637;42.020;23.992;2024-03-06T05:50:58;92646.09;;;5.01;100.00
3250;BME280;1637;42.020;23.992;2024-03-06T05:53:25;92655.47;;;5.46;100.00
3250;BME280;1637;42.020;23.992;2024-03-06T05:55:52;92661.00;;;5.20;100.00
3250;BME280;1637;42.020;23.992;2024-03-06T05:58:20;92639.13;;;5.37;100.00
3250;BME280;1637;42.020;23.992;2024-03-06T06:00:47;92651.41;;;5.70;100.00
3250;BME280;1637;42.020;23.992;2024-03-06T06:03:14;92663.44;;;6.37;100.00
3250;BME280;1637;42.020;23.992;2024-03-06T06:05:42;92658.03;;;6.01;100.00
3250;BME280;1637;42.020;23.992;2024-03-06T06:08:09;92668.31;;;6.10;100.00
3250;BME280;1637;42.020;23.992;2024-03-06T06:10:36;92668.78;;;6.51;100.00
3250;BME280;1637;42.020;23.992;2024-03-06T06:13:03;92669.22;;;6.81;99.60
3250;BME280;1637;42.020;23.992;2024-03-06T06:15:30;92669.59;;;6.76;97.70
3250;BME280;1637;42.020;23.992;2024-03-06T06:17:57;92533.69;;;5.52;96.44
3250;BME280;1637;42.020;23.992;2024-03-06T06:20:24;92675.66;;;6.77;97.49
3250;BME280;1637;42.020;23.992;2024-03-06T06:22:52;92666.94;;;7.22;94.85
3250;BME280;1637;42.020;23.992;2024-03-06T06:25:19;92660.47;;;6.92;98.02
3250;BME280;1637;42.020;23.992;2024-03-06T06:27:46;92658.56;;;6.99;97.28
3250;BME280;1637;42.020;23.992;2024-03-06T06:30:15;92662.34;;;6.70;97.20
3250;BME280;1637;42.020;23.992;2024-03-06T06:32:42;92667.72;;;7.05;97.49
3250;BME280;1637;42.020;23.992;2024-03-06T06:35:09;92668.00;;;7.64;93.60
3250;BME280;1637;42.020;23.992;2024-03-06T06:37:37;92674.84;;;6.37;97.68
3250;BME280;1637;42.020;23.992;2024-03-06T06:40:06;92674.56;;;5.70;100.00
3250;BME280;1637;42.020;23.992;2024-03-06T06:42:33;92670.69;;;5.53;100.00
3250;BME280;1637;42.020;23.992;2024-03-06T06:45:01;92678.00;;;5.70;100.00
3250;BME280;1637;42.020;23.992;2024-03-06T06:47:28;92673.41;;;5.60;100.00
3250;BME280;1637;42.020;23.992;2024-03-06T06:49:55;92672.97;;;5.55;100.00
3250;BME280;1637;42.020;23.992;2024-03-06T06:52:22;92673.22;;;6.01;100.00
3250;BME280;1637;42.020;23.992;2024-03-06T06:54:48;92682.91;;;6.83;100.00
3250;BME280;1637;42.020;23.992;2024-03-06T06:57:18;92691.63;;;6.73;100.00
3250;BME280;1637;42.020;23.992;2024-03-06T06:59:45;92680.25;;;7.19;100.00
3250;BME280;1637;42.020;23.992;2024-03-06T07:02:12;92692.03;;;7.36;100.00
3250;BME280;1637;42.020;23.992;2024-03-06T07:04:39;92685.75;;;8.10;97.49
3250;BME280;1637;42.020;23.992;2024-03-06T07:07:06;92695.34;;;9.77;87.42
3250;BME280;1637;42.020;23.992;2024-03-06T07:09:32;92696.25;;;9.97;81.24
3250;BME280;1637;42.020;23.992;2024-03-06T07:11:59;92688.31;;;10.58;80.28
3250;BME280;1637;42.020;23.992;2024-03-06T07:14:27;92703.09;;;10.96;79.16
3250;BME280;1637;42.020;23.992;2024-03-06T07:16:54;92737.97;;;10.62;77.89
3250;BME280;1637;42.020;23.992;2024-03-06T07:19:21;92702.50;;;11.09;78.08
3250;BME280;1637;42.020;23.992;2024-03-06T07:21:47;92693.50;;;9.22;86.53
3250;BME280;1637;42.020;23.992;2024-03-06T07:24:14;92704.94;;;9.26;85.67
3250;BME280;1637;42.020;23.992;2024-03-06T07:26:41;92700.44;;;9.98;84.53
3250;BME280;1637;42.020;23.992;2024-03-06T07:29:08;92700.38;;;10.05;81.64
3250;BME280;1637;42.020;23.992;2024-03-06T07:31:41;92672.19;;;9.97;81.54
3250;BME280;1637;42.020;23.992;2024-03-06T07:34:08;92703.47;;;10.00;81.72
3250;BME280;1637;42.020;23.992;2024-03-06T07:36:35;92703.53;;;9.11;87.73
3250;BME280;1637;42.020;23.992;2024-03-06T07:39:02;92706.34;;;9.41;86.50
3250;BME280;1637;42.020;23.992;2024-03-06T07:41:30;92697.38;;;9.62;83.49
3250;BME280;1637;42.020;23.992;2024-03-06T07:43:58;92697.34;;;9.65;84.26
3250;BME280;1637;42.020;23.992;2024-03-06T07:46:25;92698.28;;;10.23;81.04
3250;BME280;1637;42.020;23.992;2024-03-06T07:48:53;92712.09;;;10.18;79.96
3250;BME280;1637;42.020;23.992;2024-03-06T07:51:20;92697.75;;;9.98;79.33
3250;BME280;1637;42.020;23.992;2024-03-06T07:53:47;92702.88;;;10.23;78.12
3250;BME280;1637;42.020;23.992;2024-03-06T07:56:15;92680.97;;;9.56;79.83
3250;BME280;1637;42.020;23.992;2024-03-06T07:58:42;92701.56;;;9.63;79.89
3250;BME280;1637;42.020;23.992;2024-03-06T08:01:09;92693.50;;;10.04;81.70
3250;BME280;1637;42.020;23.992;2024-03-06T08:03:38;92708.28;;;11.07;77.51
3250;BME280;1637;42.020;23.992;2024-03-06T08:06:07;92717.34;;;12.10;70.80
3250;BME280;1637;42.020;23.992;2024-03-06T08:08:35;92713.19;;;13.21;67.14
3250;BME280;1637;42.020;23.992;2024-03-06T08:11:01;92696.16;;;12.35;68.97
3250;BME280;1637;42.020;23.992;2024-03-06T08:13:28;92704.84;;;11.80;71.28
3250;BME280;1637;42.020;23.992;2024-03-06T08:15:55;92709.44;;;13.67;66.41
3250;BME280;1637;42.020;23.992;2024-03-06T08:18:22;92715.63;;;13.96;65.09
3250;BME280;1637;42.020;23.992;2024-03-06T08:20:48;92698.53;;;14.03;64.18
3250;BME280;1637;42.020;23.992;2024-03-06T08:23:17;92713.63;;;13.52;64.76
3250;BME280;1637;42.020;23.992;2024-03-06T08:25:43;92711.75;;;13.97;62.84
3250;BME280;1637;42.020;23.992;2024-03-06T08:28:10;92704.47;;;13.33;64.97
3250;BME280;1637;42.020;23.992;2024-03-06T08:30:37;92709.00;;;13.52;65.35
3250;BME280;1637;42.020;23.992;2024-03-06T08:33:04;92702.50;;;14.27;64.74
3250;BME280;1637;42.020;23.992;2024-03-06T08:35:31;92713.09;;;16.03;59.49
3250;BME280;1637;42.020;23.992;2024-03-06T08:37:59;92729.66;;;15.79;59.57
3250;BME280;1637;42.020;23.992;2024-03-06T08:40:27;92695.22;;;12.82;65.25
3250;BME280;1637;42.020;23.992;2024-03-06T08:42:54;92694.47;;;14.40;62.07
3250;BME280;1637;42.020;23.992;2024-03-06T08:45:21;92694.91;;;12.40;67.44
3250;BME280;1637;42.020;23.992;2024-03-06T08:47:49;92701.25;;;13.54;68.02
3250;BME280;1637;42.020;23.992;2024-03-06T08:50:16;92698.75;;;14.37;64.01
3250;BME280;1637;42.020;23.992;2024-03-06T08:52:43;92696.78;;;11.57;72.82
3250;BME280;1637;42.020;23.992;2024-03-06T08:55:10;92674.97;;;13.46;65.81
3250;BME280;1637;42.020;23.992;2024-03-06T08:57:38;92686.72;;;15.22;61.70
3250;BME280;1637;42.020;23.992;2024-03-06T09:00:07;92696.56;;;13.42;66.09
3250;BME280;1637;42.020;23.992;2024-03-06T09:02:36;92674.22;;;11.78;74.09
3250;BME280;1637;42.020;23.992;2024-03-06T09:05:04;92681.19;;;11.25;77.87
3250;BME280;1637;42.020;23.992;2024-03-06T09:07:31;92617.91;;;11.08;75.95
3250;BME280;1637;42.020;23.992;2024-03-06T09:10:03;92672.00;;;10.76;78.58
3250;BME280;1637;42.020;23.992;2024-03-06T09:12:31;92683.50;;;13.89;67.35
3250;BME280;1637;42.020;23.992;2024-03-06T09:15:01;92685.28;;;14.37;64.84
3250;BME280;1637;42.020;23.992;2024-03-06T09:17:28;92678.91;;;14.60;65.66
3250;BME280;1637;42.020;23.992;2024-03-06T09:19:55;92749.44;;;15.26;61.97
3250;BME280;1637;42.020;23.992;2024-03-06T09:22:22;92675.06;;;14.99;61.83
3250;BME280;1637;42.020;23.992;2024-03-06T09:24:49;92668.84;;;13.45;68.12
3250;BME280;1637;42.020;23.992;2024-03-06T09:27:16;92664.47;;;13.19;68.26
3250;BME280;1637;42.020;23.992;2024-03-06T09:29:43;92658.44;;;13.76;65.03
3250;BME280;1637;42.020;23.992;2024-03-06T09:32:11;92661.91;;;14.05;65.03
3250;BME280;1637;42.020;23.992;2024-03-06T09:34:41;92658.44;;;13.92;65.91
3250;BME280;1637;42.020;23.992;2024-03-06T09:37:08;92656.38;;;14.25;64.96
3250;BME280;1637;42.020;23.992;2024-03-06T09:39:35;92642.72;;;14.03;64.80
3250;BME280;1637;42.020;23.992;2024-03-06T09:42:02;92643.88;;;13.28;66.71
3250;BME280;1637;42.020;23.992;2024-03-06T09:44:29;92653.13;;;13.27;66.47
3250;BME280;1637;42.020;23.992;2024-03-06T09:46:59;92659.09;;;13.80;65.19
3250;BME280;1637;42.020;23.992;2024-03-06T09:49:31;92649.59;;;12.78;66.82
3250;BME280;1637;42.020;23.992;2024-03-06T09:51:58;92647.75;;;12.91;69.02
3250;BME280;1637;42.020;23.992;2024-03-06T09:54:26;92643.91;;;11.81;72.03
3250;BME280;1637;42.020;23.992;2024-03-06T09:56:54;92642.91;;;13.67;69.43
3250;BME280;1637;42.020;23.992;2024-03-06T09:59:23;92639.47;;;13.67;63.17
3250;BME280;1637;42.020;23.992;2024-03-06T10:01:57;92632.44;;;13.86;65.03
3250;BME280;1637;42.020;23.992;2024-03-06T10:04:25;92623.09;;;13.90;62.79
3250;BME280;1637;42.020;23.992;2024-03-06T10:06:56;92627.16;;;14.78;60.35
3250;BME280;1637;42.020;23.992;2024-03-06T10:09:24;92643.53;;;15.47;55.48
3250;BME280;1637;42.020;23.992;2024-03-06T10:11:51;92650.03;;;15.37;55.54
3250;BME280;1637;42.020;23.992;2024-03-06T10:14:19;92639.66;;;15.23;58.96
3250;BME280;1637;42.020;23.992;2024-03-06T10:16:53;92637.63;;;15.27;57.98
3250;BME280;1637;42.020;23.992;2024-03-06T10:19:22;92635.47;;;15.22;56.82
3250;BME280;1637;42.020;23.992;2024-03-06T10:21:50;92634.94;;;15.01;56.60
3250;BME280;1637;42.020;23.992;2024-03-06T10:24:20;92626.09;;;15.13;57.98
3250;BME280;1637;42.020;23.992;2024-03-06T10:26:49;92582.06;;;14.40;61.04
3250;BME280;1637;42.020;23.992;2024-03-06T10:29:16;92621.53;;;14.60;61.98
3250;BME280;1637;42.020;23.992;2024-03-06T10:31:48;92570.59;;;14.24;58.74
3250;BME280;1637;42.020;23.992;2024-03-06T10:34:16;92601.88;;;14.34;59.64
3250;BME280;1637;42.020;23.992;2024-03-06T10:36:43;92581.66;;;14.80;60.03
3250;BME280;1637;42.020;23.992;2024-03-06T10:39:11;92587.56;;;15.00;57.27
3250;BME280;1637;42.020;23.992;2024-03-06T10:41:43;92594.50;;;14.63;55.43
3250;BME280;1637;42.020;23.992;2024-03-06T10:44:11;92637.69;;;15.48;54.66
3250;BME280;1637;42.020;23.992;2024-03-06T10:46:43;92603.66;;;15.76;52.68
3250;BME280;1637;42.020;23.992;2024-03-06T10:49:12;92592.31;;;15.09;53.17
3250;BME280;1637;42.020;23.992;2024-03-06T10:51:40;92591.84;;;13.93;54.81
3250;BME280;1637;42.020;23.992;2024-03-06T10:54:09;92586.75;;;13.53;56.97
3250;BME280;1637;42.020;23.992;2024-03-06T10:56:39;92596.69;;;13.85;56.26
3250;BME280;1637;42.020;23.992;2024-03-06T10:59:10;92512.78;;;13.45;55.88
3250;BME280;1637;42.020;23.992;2024-03-06T11:01:39;92598.38;;;14.50;56.52
3250;BME280;1637;42.020;23.992;2024-03-06T11:04:06;92588.03;;;13.77;62.53
3250;BME280;1637;42.020;23.992;2024-03-06T11:06:33;92572.66;;;13.33;67.22
3250;BME280;1637;42.020;23.992;2024-03-06T11:09:01;92588.38;;;13.02;68.67
3250;BME280;1637;42.020;23.992;2024-03-06T11:11:29;92593.41;;;12.67;66.89
3250;BME280;1637;42.020;23.992;2024-03-06T11:14:00;92569.88;;;12.71;71.11
3250;BME280;1637;42.020;23.992;2024-03-06T11:16:30;92592.44;;;13.26;70.19
3250;BME280;1637;42.020;23.992;2024-03-06T11:19:06;92580.84;;;13.58;70.72
3250;BME280;1637;42.020;23.992;2024-03-06T11:21:34;92585.56;;;13.54;71.47
3250;BME280;1637;42.020;23.992;2024-03-06T11:24:17;92515.56;;;13.41;72.42
3250;BME280;1637;42.020;23.992;2024-03-06T11:26:46;92580.47;;;14.14;63.88
3250;BME280;1637;42.020;23.992;2024-03-06T11:29:15;92569.41;;;14.12;59.27
3250;BME280;1637;42.020;23.992;2024-03-06T11:31:59;92574.78;;;13.70;60.98
3250;BME280;1637;42.020;23.992;2024-03-06T11:34:26;92571.66;;;14.14;61.17
3250;BME280;1637;42.020;23.992;2024-03-06T11:36:53;92568.09;;;14.71;60.89
3250;BME280;1637;42.020;23.992;2024-03-06T11:39:20;92572.06;;;14.79;58.77
3250;BME280;1637;42.020;23.992;2024-03-06T11:41:48;92574.09;;;15.00;57.15
3250;BME280;1637;42.020;23.992;2024-03-06T11:44:16;92538.53;;;14.80;57.03
3250;BME280;1637;42.020;23.992;2024-03-06T11:46:44;92522.59;;;14.73;56.45
3250;BME280;1637;42.020;23.992;2024-03-06T11:49:16;92576.78;;;15.00;56.33
3250;BME280;1637;42.020;23.992;2024-03-06T11:51:46;92572.13;;;15.26;57.41
3250;BME280;1637;42.020;23.992;2024-03-06T11:54:12;92602.16;;;15.16;57.30
3250;BME280;1637;42.020;23.992;2024-03-06T11:56:40;92589.06;;;15.27;59.27
3250;BME280;1637;42.020;23.992;2024-03-06T11:59:07;92567.19;;;15.12;60.02
3250;BME280;1637;42.020;23.992;2024-03-06T12:01:35;92558.56;;;14.79;60.13
3250;BME280;1637;42.020;23.992;2024-03-06T12:04:02;92582.84;;;14.54;58.31
3250;BME280;1637;42.020;23.992;2024-03-06T12:06:32;92552.56;;;14.75;56.31
3250;BME280;1637;42.020;23.992;2024-03-06T12:08:59;92507.28;;;14.44;57.90
3250;BME280;1637;42.020;23.992;2024-03-06T12:11:26;92545.75;;;14.70;58.40
3250;BME280;1637;42.020;23.992;2024-03-06T12:13:54;92556.75;;;14.51;58.27
3250;BME280;1637;42.020;23.992;2024-03-06T12:16:20;92549.44;;;14.51;60.77
3250;BME280;1637;42.020;23.992;2024-03-06T12:18:54;92556.31;;;13.98;65.14
3250;BME280;1637;42.020;23.992;2024-03-06T12:21:23;92548.44;;;13.49;65.50
3250;BME280;1637;42.020;23.992;2024-03-06T12:24:01;92546.25;;;13.44;64.40
3250;BME280;1637;42.020;23.992;2024-03-06T12:26:28;92539.44;;;13.39;64.70
3250;BME280;1637;42.020;23.992;2024-03-06T12:29:04;92546.25;;;13.44;64.73
3250;BME280;1637;42.020;23.992;2024-03-06T12:31:31;92547.16;;;13.95;63.60
3250;BME280;1637;42.020;23.992;2024-03-06T12:33:59;92493.88;;;13.03;61.61
3250;BME280;1637;42.020;23.992;2024-03-06T12:36:28;92539.00;;;12.80;64.81
3250;BME280;1637;42.020;23.992;2024-03-06T12:38:58;92568.13;;;12.29;67.94
3250;BME280;1637;42.020;23.992;2024-03-06T12:41:25;92538.19;;;11.94;70.48
3250;BME280;1637;42.020;23.992;2024-03-06T12:43:53;92539.63;;;11.99;69.39
3250;BME280;1637;42.020;23.992;2024-03-06T12:46:20;92537.44;;;12.30;69.73
3250;BME280;1637;42.020;23.992;2024-03-06T12:48:47;92537.63;;;12.39;68.28
3250;BME280;1637;42.020;23.992;2024-03-06T12:51:14;92545.19;;;12.44;68.58
3250;BME280;1637;42.020;23.992;2024-03-06T12:53:41;92554.63;;;12.85;66.98
3250;BME280;1637;42.020;23.992;2024-03-06T12:56:09;92550.66;;;12.57;69.30
3250;BME280;1637;42.020;23.992;2024-03-06T12:58:36;92555.34;;;12.53;71.62
3250;BME280;1637;42.020;23.992;2024-03-06T13:01:03;92551.88;;;12.36;71.97
3250;BME280;1637;42.020;23.992;2024-03-06T13:03:31;92564.97;;;12.86;69.15
3250;BME280;1637;42.020;23.992;2024-03-06T13:05:59;92559.06;;;12.75;67.87
3250;BME280;1637;42.020;23.992;2024-03-06T13:08:26;92492.03;;;12.68;68.18
3250;BME280;1637;42.020;23.992;2024-03-06T13:10:53;92563.91;;;13.13;70.03
3250;BME280;1637;42.020;23.992;2024-03-06T13:13:22;92561.06;;;12.71;68.63
3250;BME280;1637;42.020;23.992;2024-03-06T13:15:50;92557.47;;;12.78;67.34